createdAt,value
2019-04-28T00:01:51.274Z,8.10
2019-04-28T00:04:21.484Z,8.10
2019-04-28T00:06:51.540Z,8.00
2019-04-28T00:09:23.186Z,8.10
2019-04-28T00:11:52.693Z,8.10
2019-04-28T00:14:22.967Z,8.10
2019-04-28T00:16:52.281Z,8.00
2019-04-28T00:19:23.237Z,8.00
2019-04-28T00:22:01.046Z,8.00
2019-04-28T00:24:44.384Z,8.00
2019-04-28T00:27:13.778Z,8.00
2019-04-28T00:29:46.022Z,8.00
2019-04-28T00:32:14.093Z,8.00
2019-04-28T00:34:43.411Z,8.00
2019-04-28T00:37:14.373Z,8.00
2019-04-28T00:39:43.745Z,7.90
2019-04-28T00:42:13.069Z,7.90
2019-04-28T00:44:43.408Z,7.90
2019-04-28T00:47:12.903Z,7.90
2019-04-28T00:49:47.852Z,7.90
2019-04-28T00:52:18.791Z,7.90
2019-04-28T00:54:48.529Z,7.90
2019-04-28T00:57:17.997Z,7.80
2019-04-28T00:59:55.202Z,7.80
2019-04-28T01:02:21.159Z,7.80
2019-04-28T01:04:51.460Z,7.80
2019-04-28T01:07:21.318Z,7.80
2019-04-28T01:09:51.709Z,7.80
2019-04-28T01:12:21.510Z,7.80
2019-04-28T01:14:54.524Z,7.80
2019-04-28T01:17:24.544Z,7.80
2019-04-28T01:20:09.809Z,7.80
2019-04-28T01:22:40.189Z,7.80
2019-04-28T01:25:10.670Z,7.80
2019-04-28T01:27:41.784Z,7.70
2019-04-28T01:30:14.147Z,7.70
2019-04-28T01:32:51.017Z,7.70
2019-04-28T01:35:21.105Z,7.70
2019-04-28T01:37:50.605Z,7.60
2019-04-28T01:40:20.494Z,7.60
2019-04-28T01:42:50.098Z,7.60
2019-04-28T01:45:20.614Z,7.60
2019-04-28T01:47:50.956Z,7.50
2019-04-28T01:50:20.596Z,7.50
2019-04-28T01:52:51.520Z,7.50
2019-04-28T01:55:20.950Z,7.50
2019-04-28T01:57:50.289Z,7.50
2019-04-28T02:00:25.457Z,7.50
2019-04-28T02:02:53.503Z,7.40
2019-04-28T02:05:22.812Z,7.40
2019-04-28T02:07:52.228Z,7.40
2019-04-28T02:10:21.883Z,7.40
2019-04-28T02:12:51.247Z,7.40
2019-04-28T02:15:21.450Z,7.40
2019-04-28T02:17:51.679Z,7.40
2019-04-28T02:20:22.447Z,7.40
2019-04-28T02:22:54.383Z,7.40
2019-04-28T02:25:23.695Z,7.50
2019-04-28T02:27:57.187Z,7.50
2019-04-28T02:30:42.334Z,7.50
2019-04-28T02:32:57.644Z,7.50
2019-04-28T02:35:27.028Z,7.50
2019-04-28T02:37:56.352Z,7.50
2019-04-28T02:40:26.659Z,7.40
2019-04-28T02:42:55.985Z,7.50
2019-04-28T02:45:25.357Z,7.50
2019-04-28T02:47:56.336Z,7.50
2019-04-28T02:50:27.296Z,7.50
2019-04-28T02:52:58.311Z,7.50
2019-04-28T02:55:27.661Z,7.50
2019-04-28T02:57:57.022Z,7.50
2019-04-28T03:00:26.333Z,7.50
2019-04-28T03:02:55.648Z,7.50
2019-04-28T03:05:24.955Z,7.50
2019-04-28T03:07:54.349Z,7.50
2019-04-28T03:10:23.666Z,7.50
2019-04-28T03:12:52.985Z,7.50
2019-04-28T03:15:22.293Z,7.50
2019-04-28T03:17:53.224Z,7.50
2019-04-28T03:20:22.761Z,7.50
2019-04-28T03:22:52.744Z,7.50
2019-04-28T03:25:40.709Z,7.50
2019-04-28T03:28:14.158Z,7.50
2019-04-28T03:30:45.183Z,7.40
2019-04-28T03:33:19.052Z,7.40
2019-04-28T03:35:47.144Z,7.40
2019-04-28T03:38:16.469Z,7.40
2019-04-28T03:40:45.780Z,7.40
2019-04-28T03:43:15.102Z,7.40
2019-04-28T03:45:46.052Z,7.40
2019-04-28T03:48:15.455Z,7.40
2019-04-28T03:50:44.841Z,7.40
2019-04-28T03:53:14.161Z,7.40
2019-04-28T03:55:43.518Z,7.40
2019-04-28T03:58:13.875Z,7.40
2019-04-28T04:00:43.208Z,7.40
2019-04-28T04:03:12.569Z,7.40
2019-04-28T04:05:41.880Z,7.40
2019-04-28T04:08:11.236Z,7.40
2019-04-28T04:11:00.286Z,7.50
2019-04-28T04:13:34.183Z,7.50
2019-04-28T04:16:17.156Z,7.60
2019-04-28T04:18:53.134Z,7.50
2019-04-28T04:21:21.404Z,7.60
2019-04-28T04:23:50.993Z,7.60
2019-04-28T04:26:21.500Z,7.60
2019-04-28T04:28:51.635Z,7.60
2019-04-28T04:31:21.312Z,7.60
2019-04-28T04:33:50.862Z,7.60
2019-04-28T04:36:21.057Z,7.70
2019-04-28T04:38:51.552Z,7.70
2019-04-28T04:41:21.477Z,7.70
2019-04-28T04:43:51.762Z,7.70
2019-04-28T04:46:22.986Z,7.80
2019-04-28T04:48:52.426Z,7.80
2019-04-28T04:51:21.883Z,7.90
2019-04-28T04:53:55.129Z,7.90
2019-04-28T04:56:24.429Z,7.90
2019-04-28T04:58:53.762Z,8.00
2019-04-28T05:01:41.389Z,8.00
2019-04-28T05:04:16.243Z,8.00
2019-04-28T05:06:45.551Z,8.10
2019-04-28T05:09:14.876Z,8.10
2019-04-28T05:11:44.175Z,8.10
2019-04-28T05:14:13.506Z,8.20
2019-04-28T05:16:42.825Z,8.20
2019-04-28T05:19:12.150Z,8.20
2019-04-28T05:21:41.450Z,8.30
2019-04-28T05:24:19.599Z,8.20
2019-04-28T05:26:51.597Z,8.30
2019-04-28T05:29:26.955Z,8.30
2019-04-28T05:31:54.741Z,8.30
2019-04-28T05:34:26.046Z,8.40
2019-04-28T05:36:55.356Z,8.40
2019-04-28T05:39:24.669Z,8.40
2019-04-28T05:41:53.975Z,8.50
2019-04-28T05:44:23.284Z,8.50
2019-04-28T05:46:52.590Z,8.50
2019-04-28T05:49:39.679Z,8.60
2019-04-28T05:52:27.135Z,8.60
2019-04-28T05:54:59.708Z,8.70
2019-04-28T05:57:39.828Z,8.80
2019-04-28T06:00:29.605Z,8.80
2019-04-28T06:03:00.678Z,8.90
2019-04-28T06:05:31.812Z,9.00
2019-04-28T06:08:12.034Z,9.00
2019-04-28T06:10:42.389Z,9.10
2019-04-28T06:13:11.692Z,9.10
2019-04-28T06:15:41.006Z,9.20
2019-04-28T06:18:10.518Z,9.30
2019-04-28T06:20:40.699Z,9.40
2019-04-28T06:23:12.135Z,9.70
2019-04-28T06:25:47.597Z,9.80
2019-04-28T06:28:16.912Z,10.00
2019-04-28T06:30:46.227Z,10.10
2019-04-28T06:33:15.546Z,10.20
2019-04-28T06:35:44.866Z,10.30
2019-04-28T06:38:14.188Z,10.50
2019-04-28T06:40:45.456Z,10.70
2019-04-28T06:43:14.849Z,10.90
2019-04-28T06:45:44.182Z,10.90
2019-04-28T06:48:13.515Z,10.90
2019-04-28T06:50:42.884Z,10.80
2019-04-28T06:53:12.215Z,10.70
2019-04-28T06:55:41.532Z,10.60
2019-04-28T06:58:10.841Z,10.50
2019-04-28T07:00:40.169Z,10.60
2019-04-28T07:03:22.353Z,10.50
2019-04-28T07:05:40.505Z,10.50
2019-04-28T07:08:09.852Z,10.50
2019-04-28T07:10:39.181Z,10.60
2019-04-28T07:13:09.821Z,10.80
2019-04-28T07:15:44.768Z,11.00
2019-04-28T07:18:14.089Z,11.00
2019-04-28T07:20:47.789Z,10.90
2019-04-28T07:23:17.106Z,10.80
2019-04-28T07:25:46.431Z,10.70
2019-04-28T07:28:15.757Z,10.70
2019-04-28T07:30:45.078Z,10.60
2019-04-28T07:33:14.394Z,10.70
2019-04-28T07:35:43.812Z,10.70
2019-04-28T07:38:13.256Z,10.60
2019-04-28T07:40:42.596Z,10.70
2019-04-28T07:43:11.921Z,10.60
2019-04-28T07:45:41.241Z,10.60
2019-04-28T07:48:10.561Z,10.50
2019-04-28T07:50:39.879Z,10.70
2019-04-28T07:53:10.833Z,10.80
2019-04-28T07:55:53.353Z,11.20
2019-04-28T07:58:30.214Z,11.40
2019-04-28T08:01:01.364Z,11.60
2019-04-28T08:03:31.210Z,11.80
2019-04-28T08:06:00.520Z,12.10
2019-04-28T08:08:29.823Z,12.50
2019-04-28T08:10:59.186Z,12.70
2019-04-28T08:13:29.554Z,12.90
2019-04-28T08:15:59.013Z,13.10
2019-04-28T08:18:28.449Z,12.80
2019-04-28T08:20:57.765Z,12.80
2019-04-28T08:23:28.022Z,12.90
2019-04-28T08:25:57.339Z,12.90
2019-04-28T08:28:26.648Z,12.90
2019-04-28T08:30:55.998Z,12.90
2019-04-28T08:33:35.669Z,12.50
2019-04-28T08:36:06.071Z,12.00
2019-04-28T08:38:35.371Z,11.90
2019-04-28T08:41:04.712Z,11.90
2019-04-28T08:43:35.660Z,12.40
2019-04-28T08:46:04.973Z,13.10
2019-04-28T08:48:38.037Z,13.60
2019-04-28T08:54:01.487Z,13.00
2019-04-28T08:56:31.834Z,13.80
2019-04-28T08:59:01.148Z,14.60
2019-04-28T09:01:32.455Z,14.90
2019-04-28T09:04:14.488Z,14.70
2019-04-28T09:06:33.628Z,14.30
2019-04-28T09:09:24.142Z,14.10
2019-04-28T09:11:58.658Z,13.80
2019-04-28T09:14:29.530Z,13.30
2019-04-28T09:17:10.712Z,12.80
2019-04-28T09:19:44.632Z,12.50
2019-04-28T09:22:14.893Z,12.40
2019-04-28T09:24:44.195Z,12.20
2019-04-28T09:27:13.518Z,12.10
2019-04-28T09:29:42.927Z,12.20
2019-04-28T09:32:12.251Z,12.20
2019-04-28T09:34:41.559Z,12.20
2019-04-28T09:37:12.007Z,12.30
2019-04-28T09:39:44.983Z,12.50
2019-04-28T09:42:21.916Z,12.70
2019-04-28T09:44:51.271Z,13.10
2019-04-28T09:47:20.670Z,13.20
2019-04-28T09:49:50.951Z,13.00
2019-04-28T09:52:20.300Z,12.80
2019-04-28T09:54:49.708Z,12.80
2019-04-28T09:57:19.140Z,12.60
2019-04-28T09:59:48.469Z,12.90
2019-04-28T10:02:17.779Z,13.10
2019-04-28T10:04:47.097Z,13.10
2019-04-28T10:07:16.427Z,13.20
2019-04-28T10:13:13.013Z,13.00
2019-04-28T10:16:01.035Z,13.30
2019-04-28T10:18:30.478Z,13.60
2019-04-28T10:21:01.792Z,13.20
2019-04-28T10:23:31.293Z,12.80
2019-04-28T10:26:00.953Z,12.50
2019-04-28T10:28:30.426Z,12.60
2019-04-28T10:31:00.862Z,12.90
2019-04-28T10:33:30.216Z,13.10
2019-04-28T10:35:59.527Z,13.30
2019-04-28T10:38:28.892Z,13.30
2019-04-28T10:41:04.017Z,13.40
2019-04-28T10:43:33.485Z,13.20
2019-04-28T10:46:04.880Z,13.40
2019-04-28T10:48:34.279Z,13.30
2019-04-28T10:51:05.616Z,12.80
2019-04-28T10:53:34.935Z,12.80
2019-04-28T10:56:04.472Z,12.80
2019-04-28T10:58:33.849Z,12.60
2019-04-28T11:01:03.164Z,12.90
2019-04-28T11:03:33.508Z,13.40
2019-04-28T11:06:02.883Z,13.40
2019-04-28T11:08:37.953Z,13.50
2019-04-28T11:11:20.226Z,13.50
2019-04-28T11:13:49.631Z,12.90
2019-04-28T11:16:24.356Z,13.00
2019-04-28T11:18:54.663Z,13.00
2019-04-28T11:21:24.001Z,13.00
2019-04-28T11:23:55.307Z,13.00
2019-04-28T11:26:25.627Z,13.20
2019-04-28T11:28:55.027Z,13.50
2019-04-28T11:31:24.441Z,13.60
2019-04-28T11:33:55.478Z,13.60
2019-04-28T11:36:24.784Z,13.50
2019-04-28T11:38:54.098Z,13.30
2019-04-28T11:41:23.424Z,13.70
2019-04-28T11:43:52.739Z,14.40
2019-04-28T11:46:23.344Z,14.40
2019-04-28T11:48:52.656Z,14.20
2019-04-28T11:51:21.966Z,13.90
2019-04-28T11:53:51.299Z,13.60
2019-04-28T11:56:21.628Z,12.90
2019-04-28T11:58:50.963Z,11.80
2019-04-28T12:01:21.653Z,10.70
2019-04-28T12:03:52.615Z,10.20
2019-04-28T12:06:21.938Z,9.70
2019-04-28T12:08:52.875Z,9.50
2019-04-28T12:11:29.550Z,9.40
2019-04-28T12:14:12.716Z,9.30
2019-04-28T12:16:43.712Z,9.40
2019-04-28T12:19:28.049Z,9.50
2019-04-28T12:21:58.426Z,9.60
2019-04-28T12:24:27.735Z,9.80
2019-04-28T12:26:57.040Z,9.90
2019-04-28T12:29:27.263Z,9.90
2019-04-28T12:31:56.568Z,10.00
2019-04-28T12:34:25.888Z,10.20
2019-04-28T12:36:55.212Z,10.30
2019-04-28T12:39:24.527Z,10.60
2019-04-28T12:41:53.831Z,10.90
2019-04-28T12:44:23.151Z,11.30
2019-04-28T12:46:52.468Z,11.80
2019-04-28T12:49:23.423Z,12.00
2019-04-28T12:51:54.733Z,12.60
2019-04-28T12:54:26.632Z,13.00
2019-04-28T12:56:55.948Z,13.50
2019-04-28T12:59:29.822Z,14.00
2019-04-28T13:02:03.664Z,14.40
2019-04-28T13:04:36.521Z,13.70
2019-04-28T13:07:07.532Z,13.90
2019-04-28T13:09:36.922Z,15.40
2019-04-28T13:12:06.700Z,16.90
2019-04-28T13:14:36.090Z,17.70
2019-04-28T13:17:05.403Z,17.90
2019-04-28T13:19:34.721Z,19.10
2019-04-28T13:22:05.577Z,18.50
2019-04-28T13:24:36.061Z,17.00
2019-04-28T13:27:05.436Z,16.60
2019-04-28T13:29:34.751Z,17.70
2019-04-28T13:32:05.045Z,17.40
2019-04-28T13:34:36.070Z,18.20
2019-04-28T13:37:24.024Z,19.30
2019-04-28T13:40:00.772Z,18.80
2019-04-28T13:42:30.086Z,18.20
2019-04-28T13:45:07.183Z,18.30
2019-04-28T13:47:36.494Z,18.10
2019-04-28T13:50:15.523Z,18.10
2019-04-28T13:52:44.919Z,16.40
2019-04-28T13:55:22.272Z,14.50
2019-04-28T13:57:51.586Z,14.00
2019-04-28T14:00:22.710Z,13.70
2019-04-28T14:02:53.769Z,14.00
2019-04-28T14:05:41.256Z,14.50
2019-04-28T14:08:10.569Z,14.70
2019-04-28T14:10:39.881Z,14.10
2019-04-28T14:13:11.098Z,13.80
2019-04-28T14:15:40.435Z,13.50
2019-04-28T14:18:09.745Z,14.00
2019-04-28T14:20:39.126Z,14.20
2019-04-28T14:23:08.431Z,14.40
2019-04-28T14:25:37.750Z,14.80
2019-04-28T14:28:07.131Z,14.70
2019-04-28T14:30:37.520Z,14.90
2019-04-28T14:33:06.819Z,15.30
2019-04-28T14:35:36.155Z,15.30
2019-04-28T14:38:05.463Z,15.00
2019-04-28T14:40:34.850Z,14.90
2019-04-28T14:43:04.204Z,14.60
2019-04-28T14:45:34.540Z,14.70
2019-04-28T14:48:03.849Z,14.60
2019-04-28T14:50:33.161Z,15.40
2019-04-28T14:53:02.482Z,16.40
2019-04-28T14:55:31.788Z,17.80
2019-04-28T14:58:01.090Z,18.40
2019-04-28T15:00:32.052Z,17.80
2019-04-28T15:03:03.004Z,17.80
2019-04-28T15:05:39.056Z,17.20
2019-04-28T15:08:25.621Z,17.40
2019-04-28T15:10:57.603Z,18.40
2019-04-28T15:13:26.943Z,19.10
2019-04-28T15:15:56.254Z,19.50
2019-04-28T15:18:25.635Z,20.10
2019-04-28T15:20:54.964Z,21.00
2019-04-28T15:23:24.262Z,20.80
2019-04-28T15:25:53.581Z,20.40
2019-04-28T15:28:22.887Z,20.30
2019-04-28T15:30:52.209Z,20.10
2019-04-28T15:33:21.560Z,19.80
2019-04-28T15:35:50.951Z,19.50
2019-04-28T15:38:20.275Z,18.60
2019-04-28T15:40:49.616Z,18.70
2019-04-28T15:43:18.927Z,18.90
2019-04-28T15:45:48.271Z,18.80
2019-04-28T15:48:17.603Z,18.90
2019-04-28T15:50:47.262Z,20.20
2019-04-28T15:53:16.624Z,20.10
2019-04-28T15:55:53.428Z,20.20
2019-04-28T15:58:39.158Z,19.90
2019-04-28T16:01:08.771Z,20.00
2019-04-28T16:03:38.165Z,19.80
2019-04-28T16:06:07.561Z,20.10
2019-04-28T16:08:36.894Z,20.60
2019-04-28T16:11:07.319Z,21.20
2019-04-28T16:13:36.631Z,21.60
2019-04-28T16:16:06.023Z,21.30
2019-04-28T16:18:35.343Z,21.10
2019-04-28T16:21:04.637Z,20.80
2019-04-28T16:23:34.020Z,20.40
2019-04-28T16:26:03.340Z,19.30
2019-04-28T16:28:32.672Z,18.20
2019-04-28T16:31:01.975Z,17.70
2019-04-28T16:33:31.298Z,17.50
2019-04-28T16:39:23.692Z,18.40
2019-04-28T16:41:53.017Z,18.10
2019-04-28T16:44:22.337Z,18.00
2019-04-28T16:46:51.670Z,18.30
2019-04-28T16:49:20.989Z,18.70
2019-04-28T16:51:50.307Z,19.00
2019-04-28T16:54:19.609Z,18.90
2019-04-28T16:56:50.566Z,19.20
2019-04-28T16:59:37.862Z,19.50
2019-04-28T17:02:11.811Z,19.30
2019-04-28T17:04:41.194Z,19.50
2019-04-28T17:07:10.580Z,18.80
2019-04-28T17:09:40.862Z,18.20
2019-04-28T17:12:10.266Z,17.40
2019-04-28T17:14:40.556Z,17.00
2019-04-28T17:17:17.254Z,16.50
2019-04-28T17:19:46.564Z,16.20
2019-04-28T17:22:15.891Z,15.90
2019-04-28T17:24:45.203Z,15.60
2019-04-28T17:27:14.528Z,15.20
2019-04-28T17:29:43.894Z,15.10
2019-04-28T17:32:13.207Z,14.90
2019-04-28T17:34:42.516Z,14.80
2019-04-28T17:37:12.445Z,14.80
2019-04-28T17:39:41.757Z,14.70
2019-04-28T17:42:12.373Z,14.70
2019-04-28T17:44:41.751Z,14.90
2019-04-28T17:47:11.738Z,15.50
2019-04-28T17:49:41.065Z,15.60
2019-04-28T17:52:10.375Z,15.50
2019-04-28T17:54:39.697Z,15.10
2019-04-28T17:57:08.986Z,14.60
2019-04-28T17:59:38.307Z,14.20
2019-04-28T18:02:24.425Z,13.90
2019-04-28T18:04:58.480Z,13.70
2019-04-28T18:07:29.453Z,13.40
2019-04-28T18:09:58.766Z,13.30
2019-04-28T18:12:29.107Z,13.10
2019-04-28T18:15:00.074Z,13.00
2019-04-28T18:17:42.839Z,12.80
2019-04-28T18:20:12.347Z,12.80
2019-04-28T18:22:41.673Z,12.70
2019-04-28T18:25:11.048Z,12.60
2019-04-28T18:27:43.414Z,12.50
2019-04-28T18:30:14.519Z,12.40
2019-04-28T18:32:51.147Z,12.30
2019-04-28T18:35:28.044Z,12.10
2019-04-28T18:38:00.620Z,12.00
2019-04-28T18:40:31.645Z,11.90
2019-04-28T18:43:02.606Z,11.80
2019-04-28T18:45:31.927Z,11.80
2019-04-28T18:48:01.245Z,11.70
2019-04-28T18:50:30.628Z,11.50
2019-04-28T18:53:00.026Z,11.50
2019-04-28T18:55:29.377Z,11.40
2019-04-28T18:57:58.714Z,11.30
2019-04-28T19:00:29.675Z,11.10
2019-04-28T19:02:58.983Z,11.00
2019-04-28T19:05:29.989Z,10.90
2019-04-28T19:08:03.708Z,10.80
2019-04-28T19:10:35.583Z,10.70
2019-04-28T19:13:06.535Z,10.50
2019-04-28T19:15:55.788Z,10.50
2019-04-28T19:18:26.753Z,10.40
2019-04-28T19:20:56.068Z,10.40
2019-04-28T19:23:25.399Z,10.40
2019-04-28T19:25:54.701Z,10.40
2019-04-28T19:28:25.020Z,10.40
2019-04-28T19:30:54.354Z,10.30
2019-04-28T19:33:23.667Z,10.30
2019-04-28T19:35:53.119Z,10.30
2019-04-28T19:38:22.444Z,10.20
2019-04-28T19:40:51.842Z,10.10
2019-04-28T19:43:21.335Z,10.00
2019-04-28T19:45:52.301Z,9.80
2019-04-28T19:48:21.613Z,9.70
2019-04-28T19:50:50.934Z,9.60
2019-04-28T19:53:20.244Z,9.50
2019-04-28T19:55:51.200Z,9.40
2019-04-28T19:58:34.314Z,9.40
2019-04-28T20:01:08.139Z,9.30
2019-04-28T20:03:37.456Z,9.30
2019-04-28T20:06:06.792Z,9.20
2019-04-28T20:08:38.376Z,9.10
2019-04-28T20:11:09.302Z,9.10
2019-04-28T20:13:39.963Z,9.00
2019-04-28T20:16:09.418Z,8.90
2019-04-28T20:18:38.800Z,8.80
2019-04-28T20:21:08.189Z,8.80
2019-04-28T20:23:37.512Z,8.70
2019-04-28T20:26:06.981Z,8.70
2019-04-28T20:28:36.370Z,8.70
2019-04-28T20:31:05.766Z,8.60
2019-04-28T20:33:35.081Z,8.50
2019-04-28T20:36:06.045Z,8.50
2019-04-28T20:38:35.421Z,8.40
2019-04-28T20:41:15.209Z,8.30
2019-04-28T20:43:44.513Z,8.30
2019-04-28T20:46:13.843Z,8.20
2019-04-28T20:48:43.223Z,8.20
2019-04-28T20:51:12.550Z,8.10
2019-04-28T20:53:41.858Z,8.00
2019-04-28T20:56:11.182Z,8.00
2019-04-28T20:58:40.480Z,8.00
2019-04-28T21:01:10.788Z,8.00
2019-04-28T21:03:40.163Z,7.90
2019-04-28T21:06:09.485Z,7.90
2019-04-28T21:08:38.797Z,7.90
2019-04-28T21:11:08.171Z,7.80
2019-04-28T21:13:37.489Z,7.80
2019-04-28T21:16:06.805Z,7.70
2019-04-28T21:18:36.111Z,7.60
2019-04-28T21:21:05.431Z,7.60
2019-04-28T21:23:34.734Z,7.50
2019-04-28T21:26:04.048Z,7.50
2019-04-28T21:28:33.355Z,7.40
2019-04-28T21:31:02.679Z,7.40
2019-04-28T21:33:31.992Z,7.30
2019-04-28T21:36:01.317Z,7.30
2019-04-28T21:38:30.628Z,7.20
2019-04-28T21:40:59.952Z,7.20
2019-04-28T21:43:30.912Z,7.20
2019-04-28T21:46:13.971Z,7.20
2019-04-28T21:48:45.017Z,7.10
2019-04-28T21:51:14.464Z,7.10
2019-04-28T21:53:43.772Z,7.00
2019-04-28T21:56:14.089Z,7.00
2019-04-28T21:58:44.431Z,6.90
2019-04-28T22:01:16.829Z,6.90
2019-04-28T22:03:47.388Z,6.80
2019-04-28T22:06:16.699Z,6.80
2019-04-28T22:08:46.013Z,6.70
2019-04-28T22:11:16.498Z,6.70
2019-04-28T22:13:45.818Z,6.70
2019-04-28T22:16:15.194Z,6.60
2019-04-28T22:18:44.492Z,6.60
2019-04-28T22:21:13.806Z,6.50
2019-04-28T22:23:47.457Z,6.50
2019-04-28T22:26:30.426Z,6.50
2019-04-28T22:28:59.723Z,6.50
2019-04-28T22:31:29.037Z,6.40
2019-04-28T22:33:58.353Z,6.40
2019-04-28T22:36:27.668Z,6.30
2019-04-28T22:38:56.971Z,6.30
2019-04-28T22:41:26.291Z,6.20
2019-04-28T22:43:55.591Z,6.20
2019-04-28T22:46:24.901Z,6.20
2019-04-28T22:48:55.854Z,6.10
2019-04-28T22:51:25.228Z,6.10
2019-04-28T22:53:54.624Z,6.10
2019-04-28T22:56:25.580Z,6.00
2019-04-28T22:59:11.840Z,6.00
2019-04-28T23:01:45.583Z,6.00
2019-04-28T23:04:22.301Z,6.00
2019-04-28T23:06:51.623Z,5.90
2019-04-28T23:09:21.208Z,5.90
2019-04-28T23:11:50.696Z,5.90
2019-04-28T23:14:20.002Z,5.80
2019-04-28T23:16:49.319Z,5.80
2019-04-28T23:19:20.264Z,5.80
2019-04-28T23:21:54.385Z,5.80
2019-04-28T23:24:23.685Z,5.80
2019-04-28T23:26:53.465Z,5.70
2019-04-28T23:29:22.780Z,5.70
2019-04-28T23:31:52.098Z,5.70
2019-04-28T23:34:21.406Z,5.60
2019-04-28T23:36:50.718Z,5.60
2019-04-28T23:39:20.100Z,5.60
2019-04-28T23:41:51.064Z,5.50
2019-04-28T23:44:20.368Z,5.50
2019-04-28T23:46:59.549Z,5.40
2019-04-28T23:49:29.696Z,5.30
2019-04-28T23:52:15.744Z,5.30
2019-04-28T23:54:47.670Z,5.20
2019-04-28T23:57:17.004Z,5.20
2019-04-28T23:59:46.317Z,5.20
